Time;durP1;ratioP1;P1;durP2;ratioP2;P2;SDS_P1;SDS_P2;PMS_P1;PMS_P2;Temp;Humidity;BMP_temperature;BMP_pressure;BME280_temperature;BME280_humidity;BME280_pressure;Samples;Min_cycle;Max_cycle;Signal;HPM_P1;HPM_P2
2022/01/10 05:07:34;;;;;;;;;;;;;;;2.35;76.44;96430.97;4237252;27;10331;-64
2022/01/10 05:09:35;;;;;;;;;;;;;;;2.44;77.15;96432.69;4228347;28;5868;-64
2022/01/10 05:11:39;;;;;;;;;;;;;;;2.54;75.81;96433.41;4241483;27;7164;-65
2022/01/10 05:13:41;;;;;;;;;;;;;;;2.56;75.94;96441.09;4240865;27;5641;-64
2022/01/10 05:15:49;;;;;;;;;;;;;;;2.58;76.58;96442.56;4214883;28;5741;-64
2022/01/10 05:17:50;;;;;;;;;;;;;;;2.59;76.53;96456.44;4233302;28;5671;-64
2022/01/10 05:19:52;;;;;;;;;;;;;;;2.52;76.81;96460.66;4244213;27;5609;-64
2022/01/10 05:21:54;;;;;;;;;;;;;;;2.65;77.11;96461.06;4243918;27;5611;-64
2022/01/10 05:23:55;;;;;;;;;;;;;;;2.67;77.25;96463.53;4233422;28;5608;-64
2022/01/10 05:25:57;;;;;;;;;;;;;;;2.71;77.15;96468.28;4236263;27;5520;-64
2022/01/10 05:27:59;;;;;;;;;;;;;;;2.68;76.98;96471.19;4247796;27;7219;-64
2022/01/10 05:30:00;;;;;;;;;;;;;;;2.69;77.07;96467.59;4239018;27;5803;-64
2022/01/10 05:32:02;;;;;;;;;;;;;;;2.73;76.93;96463.75;4248607;27;5601;-64
2022/01/10 05:34:04;;;;;;;;;;;;;;;2.75;76.94;96471.41;4224169;28;5638;-64
2022/01/10 05:36:05;;;;;;;;;;;;;;;2.75;76.30;96468.81;4232996;27;6320;-64
2022/01/10 05:38:07;;;;;;;;;;;;;;;2.69;75.61;96467.59;4244174;27;5628;-65
2022/01/10 05:40:09;;;;;;;;;;;;;;;2.67;74.66;96476.56;4220639;28;5729;-64
2022/01/10 05:42:11;;;;;;;;;;;;;;;2.70;75.77;96479.69;4238695;27;6273;-64
2022/01/10 05:44:12;;;;;;;;;;;;;;;2.74;75.24;96482.84;4248345;27;5601;-64
2022/01/10 05:46:20;;;;;;;;;;;;;;;2.72;74.13;96483.00;4241091;27;5742;-64
2022/01/10 05:48:26;;;;;;;;;;;;;;;2.73;73.71;96481.19;4236758;27;5788;-64
2022/01/10 05:50:35;;;;;;;;;;;;;;;2.72;73.75;96487.34;4233830;27;5651;-64
2022/01/10 05:52:37;;;;;;;;;;;;;;;2.59;75.03;96493.78;4233319;27;5854;-64
2022/01/10 05:54:39;;;;;;;;;;;;;;;2.68;74.95;96492.06;4237999;27;5870;-64
2022/01/10 05:56:40;;;;;;;;;;;;;;;2.68;74.74;96496.47;4240077;27;5878;-64
2022/01/10 05:58:42;;;;;;;;;;;;;;;2.64;75.42;96501.19;4241038;27;5646;-63
2022/01/10 06:00:43;;;;;;;;;;;;;;;2.69;75.65;96508.56;4232021;27;5691;-63
2022/01/10 06:02:45;;;;;;;;;;;;;;;2.66;75.26;96504.47;4232430;28;5782;-64
2022/01/10 06:04:47;;;;;;;;;;;;;;;2.66;75.43;96509.69;4234256;27;5616;-64
2022/01/10 06:06:49;;;;;;;;;;;;;;;2.71;75.76;96515.25;4232730;27;5753;-64
2022/01/10 06:08:51;;;;;;;;;;;;;;;2.46;74.24;96527.28;4236590;28;6405;-63
2022/01/10 06:10:53;;;;;;;;;;;;;;;2.46;74.44;96518.63;4228384;27;5772;-63
2022/01/10 06:12:55;;;;;;;;;;;;;;;2.25;73.95;96522.34;4220428;28;5687;-63
2022/01/10 06:14:57;;;;;;;;;;;;;;;2.02;74.60;96528.94;4220503;28;5675;-63
2022/01/10 06:16:58;;;;;;;;;;;;;;;2.09;75.40;96527.41;4229984;28;5650;-64
2022/01/10 06:19:00;;;;;;;;;;;;;;;2.07;74.93;96534.56;4231179;28;5672;-64
2022/01/10 06:21:03;;;;;;;;;;;;;;;2.11;75.35;96537.69;4237234;27;5640;-63
2022/01/10 06:23:05;;;;;;;;;;;;;;;2.36;75.38;96543.97;4241206;27;5763;-63
2022/01/10 06:25:10;;;;;;;;;;;;;;;2.26;75.28;96555.28;4227052;27;5649;-64
2022/01/10 06:27:12;;;;;;;;;;;;;;;2.17;74.77;96550.97;4223572;28;5672;-63
2022/01/10 06:29:13;;;;;;;;;;;;;;;2.07;75.80;96563.25;4253807;27;5669;-64
2022/01/10 06:31:15;;;;;;;;;;;;;;;1.95;76.23;96561.81;4224931;27;6439;-63
2022/01/10 06:33:16;;;;;;;;;;;;;;;2.02;76.30;96563.66;4230180;27;5650;-63
2022/01/10 06:35:18;;;;;;;;;;;;;;;2.19;76.17;96567.28;4226990;28;5656;-64
2022/01/10 06:37:20;;;;;;;;;;;;;;;2.25;75.67;96561.47;4219102;28;5925;-63
2022/01/10 06:39:21;;;;;;;;;;;;;;;2.12;76.63;96552.38;4218336;27;5856;-63
2022/01/10 06:41:23;;;;;;;;;;;;;;;2.18;76.40;96565.66;4216280;28;5949;-63
2022/01/10 06:43:24;;;;;;;;;;;;;;;2.32;75.83;96559.94;4228900;28;5774;-63
2022/01/10 06:45:26;;;;;;;;;;;;;;;2.11;76.30;96564.59;4236614;27;5642;-63
2022/01/10 06:47:28;;;;;;;;;;;;;;;2.01;76.48;96567.25;4237532;27;5654;-64
2022/01/10 06:49:29;;;;;;;;;;;;;;;1.92;76.04;96569.91;4227419;27;5070;-63
2022/01/10 06:51:31;;;;;;;;;;;;;;;2.06;76.15;96572.03;4219654;28;7663;-63
2022/01/10 06:53:33;;;;;;;;;;;;;;;2.10;75.67;96569.94;4220642;28;5679;-63
2022/01/10 06:55:34;;;;;;;;;;;;;;;2.25;75.39;96566.69;4220531;28;6362;-63
2022/01/10 06:57:36;;;;;;;;;;;;;;;2.19;75.02;96569.91;4220116;28;5684;-64
2022/01/10 06:59:37;;;;;;;;;;;;;;;2.15;75.63;96571.16;4220054;28;5694;-63
2022/01/10 07:01:39;;;;;;;;;;;;;;;2.16;76.33;96580.63;4227112;28;5700;-63
2022/01/10 07:03:41;;;;;;;;;;;;;;;2.29;76.18;96582.88;4234686;28;5848;-64
2022/01/10 07:05:42;;;;;;;;;;;;;;;2.47;74.45;96593.34;4219329;27;6343;-63
2022/01/10 07:07:45;;;;;;;;;;;;;;;2.44;74.38;96604.06;4220860;27;5815;-63
2022/01/10 07:09:47;;;;;;;;;;;;;;;2.26;75.52;96606.63;4218829;28;5671;-63
2022/01/10 07:11:48;;;;;;;;;;;;;;;2.23;76.08;96618.19;4218073;28;5631;-63
2022/01/10 07:13:50;;;;;;;;;;;;;;;2.03;76.91;96617.44;4219586;28;5719;-63
2022/01/10 07:15:52;;;;;;;;;;;;;;;2.17;76.48;96621.38;4220000;28;5688;-63
2022/01/10 07:17:54;;;;;;;;;;;;;;;2.26;75.98;96633.53;4219623;28;5672;-63
2022/01/10 07:19:55;;;;;;;;;;;;;;;2.24;75.80;96638.09;4221040;28;5658;-63
2022/01/10 07:21:57;;;;;;;;;;;;;;;2.04;76.93;96631.34;4231041;28;5646;-63
2022/01/10 07:23:59;;;;;;;;;;;;;;;2.14;76.91;96637.31;4233013;27;5662;-63
2022/01/10 07:26:00;;;;;;;;;;;;;;;2.17;75.88;96639.66;4218455;28;5710;-63
2022/01/10 07:28:02;;;;;;;;;;;;;;;2.18;76.68;96651.72;4219867;28;5671;-63
2022/01/10 07:30:04;;;;;;;;;;;;;;;2.19;75.63;96657.75;4223054;28;5666;-63
2022/01/10 07:32:06;;;;;;;;;;;;;;;2.29;75.34;96656.75;4221992;28;5662;-63
2022/01/10 07:34:11;;;;;;;;;;;;;;;2.15;75.03;96656.38;4218527;28;5809;-63
2022/01/10 07:36:13;;;;;;;;;;;;;;;2.11;74.38;96655.84;4220088;28;5829;-63
2022/01/10 07:38:14;;;;;;;;;;;;;;;2.19;74.92;96666.41;4219536;28;5663;-63
2022/01/10 07:40:16;;;;;;;;;;;;;;;2.05;74.22;96666.88;4222033;28;5814;-63
2022/01/10 07:42:20;;;;;;;;;;;;;;;2.08;74.07;96674.41;4217185;28;5636;-64
2022/01/10 07:44:22;;;;;;;;;;;;;;;2.04;74.13;96675.66;4219393;28;5680;-63
2022/01/10 07:46:24;;;;;;;;;;;;;;;2.09;73.64;96672.63;4218857;28;5707;-63
2022/01/10 07:48:30;;;;;;;;;;;;;;;1.73;74.01;96668.06;4219158;28;5668;-64
2022/01/10 07:50:33;;;;;;;;;;;;;;;1.68;75.18;96677.25;4218665;28;5683;-64
2022/01/10 07:52:35;;;;;;;;;;;;;;;1.85;74.47;96676.53;4219911;28;5675;-63
2022/01/10 07:54:36;;;;;;;;;;;;;;;1.86;74.56;96688.63;4219420;28;5679;-64
2022/01/10 07:56:38;;;;;;;;;;;;;;;1.96;74.12;96685.97;4218811;28;5679;-63
2022/01/10 07:58:40;;;;;;;;;;;;;;;2.03;73.55;96684.44;4219493;28;5663;-63
2022/01/10 08:00:45;;;;;;;;;;;;;;;2.08;73.89;96692.66;4218991;28;5708;-64
2022/01/10 08:02:47;;;;;;;;;;;;;;;2.09;73.66;96691.69;4218209;28;5679;-63
2022/01/10 08:04:50;;;;;;;;;;;;;;;2.14;73.59;96699.06;4218111;28;5687;-63
2022/01/10 08:06:51;;;;;;;;;;;;;;;1.88;73.33;96712.75;4227296;28;5718;-64
2022/01/10 08:08:53;;;;;;;;;;;;;;;2.02;73.59;96698.44;4234947;28;5589;-64
2022/01/10 08:10:54;;;;;;;;;;;;;;;2.14;73.07;96701.69;4230680;27;5916;-63
2022/01/10 08:12:56;;;;;;;;;;;;;;;2.14;72.69;96707.72;4218605;28;6672;-64
2022/01/10 08:14:58;;;;;;;;;;;;;;;2.26;73.09;96716.19;4219309;28;6416;-63
2022/01/10 08:17:00;;;;;;;;;;;;;;;2.30;72.31;96710.56;4229958;28;5593;-64
2022/01/10 08:19:03;;;;;;;;;;;;;;;2.34;72.91;96714.50;4232909;27;5884;-64
2022/01/10 08:21:06;;;;;;;;;;;;;;;2.30;72.48;96718.38;4216800;28;5608;-63
2022/01/10 08:23:08;;;;;;;;;;;;;;;2.34;73.17;96724.13;4223775;28;5765;-63
2022/01/10 08:25:09;;;;;;;;;;;;;;;2.46;72.49;96733.41;4237046;27;5741;-63
2022/01/10 08:27:11;;;;;;;;;;;;;;;2.43;72.51;96736.31;4246946;27;5742;-64
2022/01/10 08:29:12;;;;;;;;;;;;;;;2.39;72.74;96739.38;4234440;28;5605;-63
2022/01/10 08:31:14;;;;;;;;;;;;;;;2.46;72.98;96745.63;4235521;27;5650;-63
2022/01/10 08:33:16;;;;;;;;;;;;;;;2.39;72.94;96758.44;4222219;28;5659;-63
2022/01/10 08:35:19;;;;;;;;;;;;;;;2.47;73.12;96757.72;4224197;28;5773;-63
2022/01/10 08:37:21;;;;;;;;;;;;;;;2.48;72.62;96762.78;4216979;28;5611;-63
2022/01/10 08:39:23;;;;;;;;;;;;;;;2.37;73.79;96756.94;4224386;27;5776;-63
2022/01/10 08:41:25;;;;;;;;;;;;;;;2.49;72.88;96764.47;4228344;28;5897;-63
2022/01/10 08:43:26;;;;;;;;;;;;;;;2.53;72.74;96764.97;4235647;27;5178;-63
2022/01/10 08:45:28;;;;;;;;;;;;;;;2.53;72.74;96776.25;4234179;27;5666;-63
2022/01/10 08:47:29;;;;;;;;;;;;;;;2.52;72.75;96779.00;4219291;28;5689;-64
2022/01/10 08:49:31;;;;;;;;;;;;;;;2.50;72.80;96786.97;4234402;28;5718;-63
2022/01/10 08:51:34;;;;;;;;;;;;;;;2.42;73.36;96784.25;4223094;28;5763;-63
2022/01/10 08:53:36;;;;;;;;;;;;;;;2.56;72.70;96781.16;4218342;28;5679;-63
2022/01/10 08:55:38;;;;;;;;;;;;;;;2.75;71.82;96779.44;4231712;28;5641;-64
2022/01/10 08:57:39;;;;;;;;;;;;;;;2.59;71.51;96780.06;4235569;27;6345;-63
2022/01/10 08:59:44;;;;;;;;;;;;;;;2.65;71.94;96789.13;4233311;27;5647;-63
2022/01/10 09:01:47;;;;;;;;;;;;;;;2.80;71.40;96779.81;4221265;27;5675;-64
2022/01/10 09:03:50;;;;;;;;;;;;;;;2.63;71.55;96789.25;4216791;28;5726;-64
2022/01/10 09:05:54;;;;;;;;;;;;;;;2.78;72.41;96790.41;4218415;28;5848;-63
2022/01/10 09:07:58;;;;;;;;;;;;;;;2.60;72.22;96789.53;4200372;28;5709;-64
2022/01/10 09:10:00;;;;;;;;;;;;;;;2.66;72.02;96791.56;4217916;28;5761;-64
2022/01/10 09:12:03;;;;;;;;;;;;;;;2.77;72.06;96795.78;4217908;28;5711;-63
2022/01/10 09:14:05;;;;;;;;;;;;;;;2.89;72.13;96798.06;4216542;28;5668;-63
2022/01/10 09:16:08;;;;;;;;;;;;;;;2.77;71.85;96799.22;4217392;28;5628;-63
2022/01/10 09:18:10;;;;;;;;;;;;;;;2.85;71.47;96817.59;4218413;28;5102;-64
2022/01/10 09:20:12;;;;;;;;;;;;;;;2.86;71.38;96824.47;4216580;28;5671;-63
2022/01/10 09:22:13;;;;;;;;;;;;;;;2.79;71.30;96817.34;4219087;28;5667;-63
2022/01/10 09:24:15;;;;;;;;;;;;;;;2.91;71.35;96827.44;4234056;28;5679;-63
2022/01/10 09:26:17;;;;;;;;;;;;;;;3.01;70.84;96823.97;4234357;28;5593;-63
2022/01/10 09:28:19;;;;;;;;;;;;;;;2.88;71.45;96811.25;4224882;27;6351;-64
2022/01/10 09:30:22;;;;;;;;;;;;;;;3.05;71.00;96817.50;4222335;28;5664;-64
2022/01/10 09:32:24;;;;;;;;;;;;;;;3.05;70.89;96828.75;4234979;27;5673;-63
2022/01/10 09:34:26;;;;;;;;;;;;;;;2.78;71.45;96821.75;4219741;28;5809;-64
2022/01/10 09:36:31;;;;;;;;;;;;;;;3.00;70.86;96824.94;4219395;28;6884;-64
2022/01/10 09:38:33;;;;;;;;;;;;;;;3.08;71.23;96838.94;4218654;28;5659;-63
2022/01/10 09:40:35;;;;;;;;;;;;;;;3.12;71.21;96845.50;4229205;28;5746;-63
2022/01/10 09:42:36;;;;;;;;;;;;;;;3.08;70.93;96846.78;4235300;27;5643;-64
2022/01/10 09:44:39;;;;;;;;;;;;;;;3.14;70.93;96853.19;4234395;28;5682;-63
2022/01/10 09:46:41;;;;;;;;;;;;;;;3.13;70.93;96857.59;4238888;27;5654;-64
2022/01/10 09:48:43;;;;;;;;;;;;;;;3.17;71.23;96858.13;4238399;27;5678;-64
2022/01/10 09:50:55;;;;;;;;;;;;;;;3.19;71.12;96858.81;4235764;28;5648;-64
2022/01/10 09:52:57;;;;;;;;;;;;;;;3.22;70.54;96861.13;4237066;28;5601;-64
2022/01/10 09:54:59;;;;;;;;;;;;;;;3.29;70.76;96862.19;4227646;27;5663;-64
2022/01/10 09:57:00;;;;;;;;;;;;;;;3.33;70.89;96867.94;4220978;28;5703;-63
2022/01/10 09:59:02;;;;;;;;;;;;;;;3.27;71.12;96868.53;4224805;28;5841;-63
2022/01/10 10:01:04;;;;;;;;;;;;;;;3.32;71.23;96867.13;4237964;27;5658;-64
2022/01/10 10:03:07;;;;;;;;;;;;;;;3.43;71.19;96869.53;4225110;28;5695;-63
2022/01/10 10:05:11;;;;;;;;;;;;;;;3.43;70.84;96873.94;4225428;28;5597;-64
2022/01/10 10:07:13;;;;;;;;;;;;;;;3.47;70.76;96870.06;4224775;27;5647;-64
2022/01/10 10:09:16;;;;;;;;;;;;;;;3.47;70.63;96875.28;4221328;27;5691;-63
2022/01/10 10:11:18;;;;;;;;;;;;;;;3.41;70.53;96879.31;4224241;28;5616;-63
2022/01/10 10:13:20;;;;;;;;;;;;;;;3.35;70.31;96889.53;4237853;27;5658;-63
2022/01/10 10:15:26;;;;;;;;;;;;;;;3.31;70.74;96885.56;4235696;28;5668;-64
2022/01/10 10:17:28;;;;;;;;;;;;;;;3.32;71.08;96882.81;4223069;28;5597;-63
2022/01/10 10:19:30;;;;;;;;;;;;;;;3.30;70.86;96889.97;4232807;28;5768;-64
2022/01/10 10:21:33;;;;;;;;;;;;;;;3.29;71.03;96883.09;4237443;28;5060;-63
2022/01/10 10:23:34;;;;;;;;;;;;;;;3.27;70.95;96887.63;4236732;28;5633;-63
2022/01/10 10:25:36;;;;;;;;;;;;;;;3.29;71.12;96888.34;4224090;28;5663;-64
2022/01/10 10:27:40;;;;;;;;;;;;;;;3.31;70.99;96891.63;4223893;28;5613;-64
2022/01/10 10:30:05;;;;;;;;;;;;;;;3.27;71.06;96895.47;4237860;28;5657;-63
2022/01/10 10:32:09;;;;;;;;;;;;;;;3.33;70.92;96900.13;4233064;28;5729;-63
2022/01/10 10:34:19;;;;;;;;;;;;;;;3.39;71.41;96904.75;4229900;28;5687;-64
2022/01/10 10:36:22;;;;;;;;;;;;;;;3.42;71.08;96903.66;4222926;28;5616;-64
2022/01/10 10:38:26;;;;;;;;;;;;;;;3.30;70.51;96904.84;4225068;28;5802;-64
2022/01/10 10:40:30;;;;;;;;;;;;;;;3.30;70.33;96910.06;4218691;28;5707;-63
2022/01/10 10:42:32;;;;;;;;;;;;;;;3.20;70.81;96904.88;4220179;28;5789;-63
2022/01/10 10:44:34;;;;;;;;;;;;;;;3.34;70.19;96901.78;4219374;28;5104;-63
2022/01/10 10:46:36;;;;;;;;;;;;;;;3.41;69.70;96910.69;4219217;28;7268;-63
2022/01/10 10:48:41;;;;;;;;;;;;;;;3.41;69.89;96902.84;4225115;28;5845;-63
2022/01/10 10:50:47;;;;;;;;;;;;;;;3.48;70.29;96914.34;4233491;28;5801;-63
2022/01/10 10:52:49;;;;;;;;;;;;;;;3.58;69.61;96913.47;4228512;27;5873;-63
2022/01/10 10:54:51;;;;;;;;;;;;;;;3.52;69.58;96908.84;4232490;28;5773;-64
2022/01/10 10:56:52;;;;;;;;;;;;;;;3.49;69.16;96910.75;4231378;28;5940;-63
2022/01/10 10:58:55;;;;;;;;;;;;;;;3.49;69.46;96910.75;4233849;27;5772;-63
2022/01/10 11:01:03;;;;;;;;;;;;;;;3.57;69.30;96904.00;4226741;27;5801;-63
2022/01/10 11:03:05;;;;;;;;;;;;;;;3.48;68.85;96908.28;4221420;28;5773;-63
2022/01/10 11:05:08;;;;;;;;;;;;;;;3.34;69.41;96906.19;4227636;27;5764;-63
2022/01/10 11:07:10;;;;;;;;;;;;;;;3.58;69.22;96909.06;4225667;27;5700;-64
2022/01/10 11:09:32;;;;;;;;;;;;;;;3.59;68.49;96920.34;4231846;28;5736;-63
2022/01/10 11:11:37;;;;;;;;;;;;;;;3.46;68.88;96918.91;4233987;27;5741;-64
2022/01/10 11:13:39;;;;;;;;;;;;;;;3.46;68.69;96918.91;4223539;27;5690;-63
2022/01/10 11:15:41;;;;;;;;;;;;;;;3.61;68.73;96924.44;4217291;28;5806;-63
2022/01/10 11:17:43;;;;;;;;;;;;;;;3.52;68.43;96929.75;4219157;28;5749;-64
2022/01/10 11:20:18;;;;;;;;;;;;;;;3.49;68.72;96921.22;4217002;28;5778;-63
2022/01/10 11:22:20;;;;;;;;;;;;;;;3.51;67.88;96934.13;4230199;28;5841;-64
2022/01/10 11:24:42;;;;;;;;;;;;;;;3.61;68.46;96921.00;4233704;27;5741;-63
2022/01/10 11:26:46;;;;;;;;;;;;;;;3.74;66.99;96924.13;4223381;27;5778;-64
2022/01/10 11:28:55;;;;;;;;;;;;;;;3.56;67.17;96925.88;4216546;28;5782;-64
2022/01/10 11:31:03;;;;;;;;;;;;;;;3.59;67.86;96915.94;4230138;28;5744;-64
2022/01/10 11:33:14;;;;;;;;;;;;;;;3.75;67.87;96921.34;4232605;28;5761;-64
2022/01/10 11:35:30;;;;;;;;;;;;;;;3.80;67.12;96923.53;4233609;27;5769;-64
2022/01/10 11:37:35;;;;;;;;;;;;;;;3.70;67.65;96912.28;4222388;27;5708;-64
2022/01/10 11:39:37;;;;;;;;;;;;;;;3.74;67.68;96916.28;4216632;28;5852;-64
2022/01/10 11:41:39;;;;;;;;;;;;;;;3.72;67.43;96910.34;4216554;28;5766;-64
2022/01/10 11:43:47;;;;;;;;;;;;;;;3.61;67.11;96921.00;4219447;28;5774;-64
2022/01/10 11:45:50;;;;;;;;;;;;;;;3.61;66.59;96915.78;4219552;28;5774;-65
2022/01/10 11:48:07;;;;;;;;;;;;;;;3.39;66.93;96925.66;4213221;28;5778;-64
2022/01/10 11:50:26;;;;;;;;;;;;;;;3.44;68.62;96918.22;4230762;27;5761;-63
2022/01/10 11:52:27;;;;;;;;;;;;;;;3.63;67.35;96929.56;4222649;27;5096;-63
2022/01/10 11:54:36;;;;;;;;;;;;;;;3.67;66.47;96928.28;4223386;27;5682;-63
2022/01/10 11:56:40;;;;;;;;;;;;;;;3.53;66.65;96920.94;4219027;28;5679;-64
2022/01/10 11:59:09;;;;;;;;;;;;;;;3.70;67.09;96935.81;4218021;28;5707;-63
2022/01/10 12:01:10;;;;;;;;;;;;;;;3.89;66.51;96927.88;4218970;28;6369;-64
2022/01/10 12:03:13;;;;;;;;;;;;;;;3.82;66.05;96925.97;4217904;28;5774;-64
2022/01/10 12:05:16;;;;;;;;;;;;;;;3.86;66.23;96943.88;4219073;28;5671;-64
2022/01/10 12:07:20;;;;;;;;;;;;;;;3.91;66.55;96931.16;4218872;28;5660;-63
2022/01/10 12:09:22;;;;;;;;;;;;;;;3.79;67.05;96927.94;4218059;28;5619;-63
2022/01/10 12:11:25;;;;;;;;;;;;;;;3.94;67.24;96933.47;4217968;28;5644;-64
2022/01/10 12:13:30;;;;;;;;;;;;;;;3.98;67.12;96942.69;4218661;28;5664;-64
2022/01/10 12:15:33;;;;;;;;;;;;;;;4.03;67.03;96940.44;4219507;28;5809;-63
2022/01/10 12:17:37;;;;;;;;;;;;;;;4.07;66.46;96941.75;4229478;28;5601;-73
2022/01/10 12:19:39;;;;;;;;;;;;;;;4.03;67.01;96939.59;4217234;28;5620;-71
2022/01/10 12:21:41;;;;;;;;;;;;;;;3.93;67.62;96939.66;4221799;28;5773;-71
2022/01/10 12:23:45;;;;;;;;;;;;;;;3.84;66.63;96945.78;4200993;28;5623;-64
2022/01/10 12:25:48;;;;;;;;;;;;;;;3.84;67.06;96950.19;4218014;28;5094;-64
2022/01/10 12:27:53;;;;;;;;;;;;;;;3.87;67.45;96950.75;4232348;27;5666;-64
2022/01/10 12:29:55;;;;;;;;;;;;;;;3.80;67.52;96957.50;4218790;28;5695;-64
2022/01/10 12:31:58;;;;;;;;;;;;;;;3.78;68.21;96956.84;4221320;28;5759;-64
2022/01/10 12:34:01;;;;;;;;;;;;;;;3.90;68.11;96960.91;4233836;27;5681;-64
2022/01/10 12:36:05;;;;;;;;;;;;;;;3.91;68.55;96966.94;4233670;28;5713;-64
2022/01/10 12:38:07;;;;;;;;;;;;;;;4.07;67.91;96964.50;4218486;28;5679;-64
2022/01/10 12:40:10;;;;;;;;;;;;;;;4.16;67.21;96970.63;4217432;28;5902;-64
2022/01/10 12:42:12;;;;;;;;;;;;;;;4.17;67.47;96972.28;4219094;28;5768;-63
2022/01/10 12:44:14;;;;;;;;;;;;;;;4.28;66.76;96969.44;4217903;28;5889;-63
2022/01/10 12:46:18;;;;;;;;;;;;;;;4.24;66.54;96978.56;4224497;27;5821;-63
2022/01/10 12:48:23;;;;;;;;;;;;;;;4.18;66.66;96971.31;4232075;27;5785;-63
2022/01/10 12:50:25;;;;;;;;;;;;;;;4.12;66.78;96971.91;4218177;28;5794;-63
2022/01/10 12:52:27;;;;;;;;;;;;;;;4.21;67.14;96973.63;4217772;28;5869;-63
2022/01/10 12:54:29;;;;;;;;;;;;;;;4.35;66.96;96975.72;4218089;28;5681;-63
2022/01/10 12:56:32;;;;;;;;;;;;;;;4.16;66.86;96983.72;4218314;28;5745;-64
2022/01/10 12:58:35;;;;;;;;;;;;;;;4.04;67.19;96988.34;4233561;28;5612;-64
2022/01/10 13:00:37;;;;;;;;;;;;;;;3.97;67.07;96988.13;4216610;28;5074;-63
2022/01/10 13:02:39;;;;;;;;;;;;;;;3.91;67.36;96987.88;4218575;28;7679;-63
2022/01/10 13:04:43;;;;;;;;;;;;;;;4.17;67.33;96995.81;4219901;28;5667;-64
2022/01/10 13:06:47;;;;;;;;;;;;;;;3.93;67.29;96983.31;4218183;28;5715;-65
2022/01/10 13:08:50;;;;;;;;;;;;;;;3.91;68.14;96995.72;4206269;28;5843;-64
2022/01/10 13:10:52;;;;;;;;;;;;;;;3.95;67.43;96990.03;4203396;28;5624;-63
2022/01/10 13:13:05;;;;;;;;;;;;;;;3.85;67.48;96994.53;4209136;28;5699;-63
2022/01/10 13:15:13;;;;;;;;;;;;;;;3.84;67.59;97019.00;4221374;28;5620;-63
2022/01/10 13:17:20;;;;;;;;;;;;;;;3.78;67.85;97003.91;4209246;28;5715;-64
2022/01/10 13:19:28;;;;;;;;;;;;;;;4.03;67.59;97007.63;4228589;28;5666;-64
2022/01/10 13:21:51;;;;;;;;;;;;;;;4.05;67.42;97013.53;4221682;28;5656;-64
2022/01/10 13:24:22;;;;;;;;;;;;;;;4.07;67.74;97015.03;4224027;28;5616;-64
2022/01/10 13:26:27;;;;;;;;;;;;;;;4.04;68.02;97015.31;4235757;27;5768;-64
2022/01/10 13:28:43;;;;;;;;;;;;;;;4.00;68.50;97013.97;4231993;27;5753;-64
2022/01/10 13:30:53;;;;;;;;;;;;;;;4.02;67.81;97025.13;4208111;28;5834;-64
2022/01/10 13:33:01;;;;;;;;;;;;;;;3.89;67.87;97014.19;4229687;28;6340;-65
2022/01/10 13:35:09;;;;;;;;;;;;;;;4.04;68.46;97019.72;4227842;27;5700;-65
2022/01/10 13:37:14;;;;;;;;;;;;;;;4.16;67.46;97022.97;4221745;27;5671;-63
2022/01/10 13:39:20;;;;;;;;;;;;;;;4.24;67.53;97021.25;4228602;28;5230;-63
2022/01/10 13:41:22;;;;;;;;;;;;;;;4.24;67.21;97030.91;4232812;27;5821;-63
2022/01/10 13:43:30;;;;;;;;;;;;;;;4.01;66.70;97036.56;4228158;28;5770;-63
2022/01/10 13:45:54;;;;;;;;;;;;;;;4.07;67.49;97040.34;4237159;28;5666;-63
2022/01/10 13:48:00;;;;;;;;;;;;;;;4.25;67.06;97036.00;4222820;28;5696;-63
2022/01/10 13:50:19;;;;;;;;;;;;;;;4.33;67.27;97030.03;4228329;28;5708;-63
2022/01/10 13:52:20;;;;;;;;;;;;;;;4.28;66.84;97040.09;4233497;27;5662;-64
2022/01/10 13:54:30;;;;;;;;;;;;;;;4.25;66.58;97037.78;4226151;28;5933;-63
2022/01/10 13:56:37;;;;;;;;;;;;;;;4.24;65.85;97041.38;4221497;28;5735;-63
2022/01/10 13:58:43;;;;;;;;;;;;;;;3.84;67.70;97034.69;4228869;28;5657;-63
2022/01/10 14:00:56;;;;;;;;;;;;;;;3.92;67.64;97047.88;4234044;28;5646;-64
2022/01/10 14:03:00;;;;;;;;;;;;;;;3.98;67.14;97044.69;4234531;27;5699;-64
2022/01/10 14:05:24;;;;;;;;;;;;;;;4.01;67.66;97044.41;4237189;27;5694;-64
2022/01/10 14:07:32;;;;;;;;;;;;;;;4.16;66.85;97047.34;4226409;28;5155;-64
2022/01/10 14:09:34;;;;;;;;;;;;;;;4.04;67.42;97048.50;4219463;28;6272;-64
2022/01/10 14:11:36;;;;;;;;;;;;;;;4.08;67.22;97052.50;4227994;28;5658;-64
2022/01/10 14:13:41;;;;;;;;;;;;;;;4.10;67.54;97045.31;4223304;27;5683;-64
2022/01/10 14:15:44;;;;;;;;;;;;;;;3.96;67.45;97053.63;4219984;28;5710;-63
2022/01/10 14:17:48;;;;;;;;;;;;;;;3.96;68.08;97066.72;4241640;27;5601;-63
2022/01/10 14:19:51;;;;;;;;;;;;;;;4.04;67.51;97066.81;4220121;28;5644;-63
2022/01/10 14:21:53;;;;;;;;;;;;;;;4.08;67.28;97070.81;4219626;28;5864;-63
2022/01/10 14:23:55;;;;;;;;;;;;;;;4.15;67.14;97074.47;4224642;27;6397;-64
2022/01/10 14:25:57;;;;;;;;;;;;;;;4.10;66.53;97068.88;4237757;28;5650;-64
2022/01/10 14:27:58;;;;;;;;;;;;;;;4.05;67.15;97079.75;4229659;28;5715;-64
2022/01/10 14:30:03;;;;;;;;;;;;;;;4.08;66.71;97076.88;4230390;27;5809;-63
2022/01/10 14:32:06;;;;;;;;;;;;;;;3.90;66.73;97075.97;4233240;28;5797;-64
2022/01/10 14:34:12;;;;;;;;;;;;;;;3.92;66.53;97086.28;4229067;28;6321;-65
2022/01/10 14:36:15;;;;;;;;;;;;;;;3.91;66.59;97075.00;4225894;28;5843;-62
2022/01/10 14:38:17;;;;;;;;;;;;;;;4.00;66.97;97082.00;4230298;28;5658;-64
2022/01/10 14:40:19;;;;;;;;;;;;;;;4.05;66.68;97073.69;4227103;28;5604;-63
2022/01/10 14:42:21;;;;;;;;;;;;;;;4.06;66.27;97089.25;4220046;28;5672;-63
2022/01/10 14:44:24;;;;;;;;;;;;;;;3.96;65.40;97085.84;4218859;28;5600;-63
2022/01/10 14:46:28;;;;;;;;;;;;;;;3.91;66.33;97097.72;4218997;28;5698;-64
2022/01/10 14:48:30;;;;;;;;;;;;;;;3.92;66.58;97099.38;4224127;28;5699;-64
2022/01/10 14:50:32;;;;;;;;;;;;;;;3.86;65.95;97099.97;4221383;27;6351;-64
2022/01/10 14:52:34;;;;;;;;;;;;;;;3.80;65.82;97102.16;4220222;28;5783;-64
2022/01/10 14:54:36;;;;;;;;;;;;;;;3.92;65.39;97109.84;4223668;28;5828;-64
2022/01/10 14:56:38;;;;;;;;;;;;;;;3.98;65.30;97104.03;4227321;27;5710;-63
2022/01/10 14:58:40;;;;;;;;;;;;;;;3.84;66.06;97115.78;4226301;28;5757;-64
2022/01/10 15:00:44;;;;;;;;;;;;;;;3.89;65.67;97121.41;4235893;28;5633;-63
2022/01/10 15:02:46;;;;;;;;;;;;;;;3.82;65.83;97125.56;4225703;27;6314;-64
2022/01/10 15:04:48;;;;;;;;;;;;;;;3.93;65.36;97132.41;4218171;28;5683;-63
2022/01/10 15:06:50;;;;;;;;;;;;;;;3.76;66.18;97129.59;4222845;28;5660;-64
2022/01/10 15:08:52;;;;;;;;;;;;;;;3.85;65.96;97129.69;4232205;28;5641;-63
2022/01/10 15:10:54;;;;;;;;;;;;;;;4.00;65.64;97133.50;4226625;28;5666;-64
2022/01/10 15:12:57;;;;;;;;;;;;;;;3.83;65.57;97135.06;4222475;28;5758;-63
2022/01/10 15:15:01;;;;;;;;;;;;;;;3.91;65.94;97129.13;4227047;28;5668;-64
2022/01/10 15:17:04;;;;;;;;;;;;;;;3.92;65.70;97139.44;4221471;28;5691;-63
2022/01/10 15:19:06;;;;;;;;;;;;;;;3.98;65.92;97133.63;4221457;28;5743;-64
2022/01/10 15:21:08;;;;;;;;;;;;;;;3.95;65.57;97139.13;4228000;27;5662;-64
2022/01/10 15:23:10;;;;;;;;;;;;;;;3.74;66.59;97138.53;4223587;28;5687;-63
2022/01/10 15:25:13;;;;;;;;;;;;;;;3.89;66.70;97150.19;4219154;28;5671;-63
2022/01/10 15:27:16;;;;;;;;;;;;;;;3.88;66.98;97150.34;4219574;28;5679;-63
2022/01/10 15:29:17;;;;;;;;;;;;;;;3.87;67.02;97154.75;4218589;28;6183;-64
2022/01/10 15:31:19;;;;;;;;;;;;;;;3.81;66.92;97152.69;4215800;28;5774;-63
2022/01/10 15:33:22;;;;;;;;;;;;;;;3.77;67.44;97164.41;4215455;28;5624;-63
2022/01/10 15:35:24;;;;;;;;;;;;;;;3.80;67.25;97164.94;4230235;27;6561;-63
2022/01/10 15:37:26;;;;;;;;;;;;;;;3.77;67.23;97170.47;4219457;28;5743;-63
2022/01/10 15:39:29;;;;;;;;;;;;;;;3.76;67.56;97166.19;4220937;28;6404;-63
2022/01/10 15:41:31;;;;;;;;;;;;;;;3.78;67.17;97171.28;4220572;28;5682;-64
2022/01/10 15:43:33;;;;;;;;;;;;;;;3.82;67.42;97169.19;4220146;28;5806;-63
2022/01/10 15:45:35;;;;;;;;;;;;;;;3.85;67.16;97180.22;4218390;28;5687;-63
2022/01/10 15:47:38;;;;;;;;;;;;;;;3.80;67.47;97182.41;4222693;27;5667;-64
2022/01/10 15:49:41;;;;;;;;;;;;;;;3.61;67.65;97175.44;4219677;28;5675;-63
2022/01/10 15:51:44;;;;;;;;;;;;;;;3.60;67.04;97189.47;4230491;27;5753;-63
2022/01/10 15:53:46;;;;;;;;;;;;;;;3.67;67.67;97192.34;4222132;28;5761;-63
2022/01/10 15:55:48;;;;;;;;;;;;;;;3.56;68.37;97195.13;4223520;28;5740;-64
2022/01/10 15:57:50;;;;;;;;;;;;;;;3.62;68.20;97189.31;4223552;28;5708;-63
2022/01/10 15:59:52;;;;;;;;;;;;;;;3.66;67.79;97188.09;4220841;28;5745;-63
2022/01/10 16:01:53;;;;;;;;;;;;;;;3.60;68.23;97197.31;4232830;28;5865;-64
2022/01/10 16:03:56;;;;;;;;;;;;;;;3.68;68.14;97197.44;4219672;27;5766;-63
2022/01/10 16:05:59;;;;;;;;;;;;;;;3.65;67.77;97202.97;4225463;27;5906;-63
2022/01/10 16:08:00;;;;;;;;;;;;;;;3.44;68.46;97204.91;4213879;28;5730;-63